Time;durP1;ratioP1;P1;durP2;ratioP2;P2;SDS_P1;SDS_P2;PMS_P1;PMS_P2;Temp;Humidity;BMP_temperature;BMP_pressure;BME280_temperature;BME280_humidity;BME280_pressure;Samples;Min_cycle;Max_cycle;Signal;HPM_P1;HPM_P2
2022/03/15 00:02:03;;;;;;;5.43;2.70;;;;;;;6.90;85.77;102557.38;5080010;28;20055;-73
2022/03/15 00:04:29;;;;;;;14.65;2.95;;;;;;;6.88;85.80;102548.72;5072007;28;20483;-74
2022/03/15 00:06:58;;;;;;;4.50;2.80;;;;;;;6.85;85.38;102546.25;5076015;28;20050;-74
2022/03/15 00:09:28;;;;;;;4.47;2.45;;;;;;;6.82;85.67;102554.19;5071431;28;20083;-74
2022/03/15 00:12:01;;;;;;;5.93;3.17;;;;;;;6.75;86.09;102544.00;5074356;28;20056;-73
2022/03/15 00:14:29;;;;;;;8.80;2.72;;;;;;;6.79;85.75;102554.28;5075992;28;20044;-75
2022/03/15 00:17:10;;;;;;;3.80;2.60;;;;;;;6.70;85.23;102549.38;5077283;28;20033;-74
2022/03/15 00:19:37;;;;;;;4.97;3.25;;;;;;;6.59;86.22;102548.91;5081688;28;20132;-74
2022/03/15 00:22:10;;;;;;;;;;;;;;;6.49;86.45;102538.81;5065853;28;20058;-74
2022/03/15 00:24:37;;;;;;;4.22;2.40;;;;;;;6.40;86.80;102532.16;5071062;28;19964;-75
2022/03/15 00:27:04;;;;;;;3.40;2.30;;;;;;;6.31;87.49;102543.81;5081897;28;20084;-74
2022/03/15 00:29:31;;;;;;;4.43;2.50;;;;;;;6.22;87.65;102544.09;5094063;28;20028;-73
2022/03/15 00:31:58;;;;;;;4.28;2.55;;;;;;;6.16;87.56;102539.09;5086024;28;20048;-73
2022/03/15 00:34:32;;;;;;;4.78;2.65;;;;;;;6.07;88.11;102544.59;5075778;28;20105;-73
2022/03/15 00:37:10;;;;;;;4.13;2.40;;;;;;;5.94;88.34;102543.31;5071303;28;20055;-73
2022/03/15 00:39:37;;;;;;;3.47;2.15;;;;;;;5.87;89.08;102539.16;5072511;28;20039;-75
2022/03/15 00:42:04;;;;;;;3.80;2.63;;;;;;;5.83;89.42;102535.78;5074955;28;20068;-74
2022/03/15 00:44:35;;;;;;;3.60;2.55;;;;;;;5.75;89.66;102545.56;5076940;28;20047;-73
2022/03/15 00:47:04;;;;;;;3.63;2.55;;;;;;;5.72;90.46;102542.22;5071832;28;20111;-75
2022/03/15 00:49:36;;;;;;;4.97;2.45;;;;;;;5.74;90.23;102550.84;5071927;28;20062;-72
2022/03/15 00:52:04;;;;;;;10.98;3.50;;;;;;;5.68;89.88;102545.81;5072627;28;20058;-74
2022/03/15 00:54:51;;;;;;;5.20;3.08;;;;;;;5.62;89.57;102535.59;5069506;28;20051;-74
2022/03/15 00:57:31;;;;;;;2.75;2.13;;;;;;;5.61;90.31;102536.50;5055923;28;20130;-73
2022/03/15 01:00:01;;;;;;;3.38;2.10;;;;;;;5.60;90.20;102522.59;5078149;28;20024;-73
2022/03/15 01:02:30;;;;;;;6.18;2.67;;;;;;;5.64;90.54;102529.44;5085281;28;20146;-73
2022/03/15 01:04:57;;;;;;;3.33;2.40;;;;;;;5.61;90.26;102528.66;5058440;28;20052;-74
2022/03/15 01:07:27;;;;;;;13.52;2.95;;;;;;;5.62;90.41;102523.41;5072484;28;20036;-73
2022/03/15 01:09:55;;;;;;;4.88;2.72;;;;;;;5.62;90.40;102525.16;5075610;28;20048;-75
2022/03/15 01:12:25;;;;;;;4.47;2.50;;;;;;;5.62;90.58;102530.38;5071056;28;20041;-73
2022/03/15 01:14:51;;;;;;;6.78;2.30;;;;;;;5.60;90.71;102525.19;5058383;28;20037;-73
2022/03/15 01:17:21;;;;;;;5.30;3.28;;;;;;;5.60;90.50;102526.97;5073644;28;20044;-75
2022/03/15 01:19:48;;;;;;;3.60;2.03;;;;;;;5.60;90.25;102535.63;5076293;28;20025;-73
2022/03/15 01:22:15;;;;;;;6.10;3.05;;;;;;;5.57;90.06;102527.91;5074188;28;20403;-73
2022/03/15 01:24:43;;;;;;;3.97;2.50;;;;;;;5.60;90.13;102534.78;5076435;28;20044;-71
2022/03/15 01:27:11;;;;;;;6.85;2.67;;;;;;;5.59;89.29;102533.91;5072734;28;20038;-74
2022/03/15 01:29:39;;;;;;;5.47;2.95;;;;;;;5.56;90.13;102515.78;5055389;28;20506;-73
2022/03/15 01:32:06;;;;;;;8.63;2.90;;;;;;;5.54;90.04;102519.31;5055522;28;20836;-74
2022/03/15 01:34:32;;;;;;;3.17;2.60;;;;;;;5.58;90.35;102515.72;5075349;28;20046;-73
2022/03/15 01:37:05;;;;;;;5.80;3.25;;;;;;;5.57;89.58;102527.91;5070779;28;20111;-73
2022/03/15 01:39:34;;;;;;;5.43;3.00;;;;;;;5.62;89.49;102525.16;5070437;28;20063;-72
2022/03/15 01:42:10;;;;;;;3.95;2.45;;;;;;;5.56;90.11;102521.00;5067747;28;20130;-73
2022/03/15 01:44:37;;;;;;;3.53;2.58;;;;;;;5.50;90.37;102517.69;5067433;28;20530;-76
2022/03/15 01:47:06;;;;;;;4.13;3.13;;;;;;;5.44;91.56;102523.09;5069446;28;20040;-75
2022/03/15 01:49:33;;;;;;;6.30;4.00;;;;;;;5.43;91.51;102515.31;5074324;28;20051;-73
2022/03/15 01:51:59;;;;;;;2.67;2.03;;;;;;;5.42;91.42;102517.09;5074241;28;20075;-74
2022/03/15 01:54:45;;;;;;;4.90;2.83;;;;;;;5.38;91.86;102509.41;5077484;28;20189;-73
2022/03/15 01:57:14;;;;;;;3.38;2.10;;;;;;;5.34;92.21;102512.97;5048600;28;20427;-74
2022/03/15 01:59:41;;;;;;;6.65;3.20;;;;;;;5.29;92.16;102515.75;5069955;28;20047;-74
2022/03/15 02:02:10;;;;;;;3.88;3.17;;;;;;;5.28;92.74;102510.56;5075032;28;20044;-74
2022/03/15 02:04:43;;;;;;;3.40;2.80;;;;;;;5.24;92.60;102509.81;5071576;28;20127;-73
2022/03/15 02:07:12;;;;;;;5.53;2.88;;;;;;;5.21;92.84;102501.22;5069520;28;20040;-74
2022/03/15 02:09:43;;;;;;;4.60;3.00;;;;;;;5.23;93.86;102500.28;5074236;28;20060;-73
2022/03/15 02:12:10;;;;;;;4.05;2.42;;;;;;;5.17;94.36;102494.41;5073972;28;20775;-73
2022/03/15 02:14:38;;;;;;;5.25;2.58;;;;;;;5.14;94.72;102494.50;5074649;28;20399;-74
2022/03/15 02:17:10;;;;;;;7.60;2.85;;;;;;;5.13;95.45;102496.22;5075524;28;20115;-76
2022/03/15 02:19:42;;;;;;;3.15;2.28;;;;;;;5.19;95.71;102490.88;5070745;28;20048;-73
2022/03/15 02:22:11;;;;;;;3.70;2.53;;;;;;;5.20;95.61;102489.97;5075046;28;20094;-77
2022/03/15 02:24:54;;;;;;;3.17;2.10;;;;;;;5.23;95.21;102494.22;5079936;28;20040;-73
2022/03/15 02:27:23;;;;;;;3.55;2.50;;;;;;;5.22;95.73;102482.94;5072980;28;20042;-73
2022/03/15 02:29:54;;;;;;;4.10;2.50;;;;;;;5.27;95.46;102481.06;5072298;28;20131;-74
2022/03/15 02:32:21;;;;;;;4.22;2.58;;;;;;;5.34;95.10;102482.59;5067053;28;20051;-73
2022/03/15 02:34:48;;;;;;;3.42;2.72;;;;;;;5.32;95.39;102480.94;5075476;28;20420;-73
2022/03/15 02:37:35;;;;;;;14.23;2.95;;;;;;;5.35;94.67;102473.00;5075174;28;20072;-73
2022/03/15 02:40:06;;;;;;;4.57;3.88;;;;;;;5.37;94.33;102472.09;5076121;28;20074;-74
2022/03/15 02:42:32;;;;;;;9.50;3.65;;;;;;;5.42;93.66;102464.97;5053878;28;20143;-73
2022/03/15 02:44:59;;;;;;;6.90;3.13;;;;;;;5.40;93.27;102461.53;5074656;28;20059;-74
2022/03/15 02:47:47;;;;;;;4.32;2.55;;;;;;;5.37;93.14;102460.78;5068437;28;20089;-72
2022/03/15 02:50:14;;;;;;;5.63;2.97;;;;;;;5.34;93.22;102464.34;5071602;28;20486;-73
2022/03/15 02:52:44;;;;;;;4.50;3.00;;;;;;;5.32;93.29;102453.09;5071653;28;20415;-74
2022/03/15 02:55:10;;;;;;;5.57;2.65;;;;;;;5.34;93.80;102456.53;5067199;28;20032;-73
2022/03/15 02:57:37;;;;;;;3.65;3.13;;;;;;;5.38;93.84;102452.06;5076037;28;20462;-73
2022/03/15 03:00:10;;;;;;;;;;;;;;;5.37;93.95;102455.56;5055340;28;20058;-73
2022/03/15 03:02:38;;;;;;;3.38;2.58;;;;;;;5.34;94.02;102455.66;5060087;28;19928;-73
2022/03/15 03:05:06;;;;;;;4.18;3.03;;;;;;;5.34;93.98;102456.53;5080749;28;20437;-74
2022/03/15 03:07:48;;;;;;;3.35;2.88;;;;;;;5.31;94.67;102451.41;5082199;28;20045;-73
2022/03/15 03:10:23;;;;;;;8.38;3.28;;;;;;;5.31;94.89;102438.38;5080997;28;20044;-73
2022/03/15 03:12:50;;;;;;;4.53;2.50;;;;;;;5.34;94.62;102429.59;5078170;28;20071;-72
2022/03/15 03:15:19;;;;;;;9.20;2.95;;;;;;;5.33;94.31;102435.75;5085911;28;20045;-74
2022/03/15 03:17:49;;;;;;;3.22;1.88;;;;;;;5.30;94.52;102436.66;5084681;28;20036;-73
2022/03/15 03:20:35;;;;;;;6.28;2.40;;;;;;;5.29;94.56;102427.16;5074330;28;20153;-73
2022/03/15 03:23:03;;;;;;;5.68;3.28;;;;;;;5.27;94.51;102431.56;5069761;28;20422;-75
2022/03/15 03:25:36;;;;;;;3.65;2.55;;;;;;;5.24;94.84;102436.84;5068090;28;20047;-74
2022/03/15 03:28:03;;;;;;;3.45;2.42;;;;;;;5.25;94.39;102428.16;5071814;28;20051;-74
2022/03/15 03:30:37;;;;;;;;;;;;;;;5.25;94.62;102425.53;5073157;28;20101;-74
2022/03/15 03:36:09;;;;;;;3.75;2.50;;;;;;;5.30;94.11;102415.81;5049221;27;1219848;-75
2022/03/15 03:38:41;;;;;;;3.75;2.58;;;;;;;5.32;94.40;102415.78;5079909;28;20052;-75
2022/03/15 03:41:09;;;;;;;2.75;1.90;;;;;;;5.35;93.94;102419.16;5103411;28;20118;-73
2022/03/15 03:43:36;;;;;;;2.13;1.88;;;;;;;5.31;93.85;102412.31;5100406;28;20039;-73
2022/03/15 03:46:09;;;;;;;10.93;2.72;;;;;;;5.33;93.85;102412.28;5098967;28;20036;-75
2022/03/15 03:48:36;;;;;;;5.22;2.67;;;;;;;5.31;93.86;102408.88;5093504;28;20044;-74
2022/03/15 03:51:13;;;;;;;5.75;2.55;;;;;;;5.29;93.81;102416.75;5094572;28;20055;-73
2022/03/15 03:53:40;;;;;;;2.85;2.25;;;;;;;5.29;94.62;102421.09;5098676;28;20039;-73
2022/03/15 03:56:09;;;;;;;2.13;1.63;;;;;;;5.30;94.50;102418.44;5085131;28;20059;-74
2022/03/15 03:58:37;;;;;;;3.55;2.50;;;;;;;5.37;94.26;102411.28;5091912;28;20414;-75
2022/03/15 04:01:04;;;;;;;2.72;2.30;;;;;;;5.42;93.54;102405.03;5099753;28;20059;-74
2022/03/15 04:03:33;;;;;;;5.45;2.17;;;;;;;5.43;94.20;102409.34;5091608;28;20127;-74
2022/03/15 04:06:06;;;;;;;12.63;2.45;;;;;;;5.41;93.46;102408.53;5077147;28;20050;-74
2022/03/15 04:08:35;;;;;;;2.92;2.28;;;;;;;5.41;93.46;102403.31;5098039;28;20057;-75
2022/03/15 04:11:10;;;;;;;4.90;2.67;;;;;;;5.41;93.27;102411.13;5098865;28;20055;-74
2022/03/15 04:13:40;;;;;;;8.20;2.13;;;;;;;5.49;93.07;102406.53;5093558;28;20125;-74
2022/03/15 04:16:07;;;;;;;4.70;2.50;;;;;;;5.50;92.38;102405.63;5099637;28;20039;-74
2022/03/15 04:18:38;;;;;;;6.18;3.13;;;;;;;5.54;92.03;102404.63;5088679;28;20047;-74
2022/03/15 04:21:10;;;;;;;11.68;3.05;;;;;;;5.63;91.41;102406.94;5096151;28;20044;-75
2022/03/15 04:23:38;;;;;;;3.17;2.17;;;;;;;5.63;91.34;102409.53;5080316;28;20044;-74
2022/03/15 04:26:10;;;;;;;7.95;3.15;;;;;;;5.56;91.89;102410.63;5095597;28;20050;-76
2022/03/15 04:28:42;;;;;;;5.68;2.72;;;;;;;5.49;92.21;102409.13;5093781;28;20092;-75
2022/03/15 04:31:10;;;;;;;8.55;2.55;;;;;;;5.48;92.47;102407.44;5092357;28;20702;-76
2022/03/15 04:33:36;;;;;;;3.45;2.50;;;;;;;5.47;92.52;102400.50;5091929;28;20050;-74
2022/03/15 04:36:10;;;;;;;9.68;2.85;;;;;;;5.44;92.78;102408.44;5100116;28;20048;-75
2022/03/15 04:38:38;;;;;;;6.10;2.63;;;;;;;5.43;92.97;102411.94;5083005;28;20051;-75
2022/03/15 04:41:05;;;;;;;6.00;2.53;;;;;;;5.50;91.82;102410.00;5098774;28;20050;-75
2022/03/15 04:43:35;;;;;;;3.92;2.55;;;;;;;5.55;92.21;102408.94;5091955;28;20075;-75
2022/03/15 04:46:05;;;;;;;5.15;2.25;;;;;;;5.53;92.08;102407.28;5093804;28;20055;-74
2022/03/15 04:48:32;;;;;;;5.80;2.88;;;;;;;5.53;91.56;102397.72;5081106;28;20086;-74
2022/03/15 04:50:59;;;;;;;3.45;2.38;;;;;;;5.54;91.65;102394.19;5078477;28;20044;-75
2022/03/15 04:53:29;;;;;;;4.88;2.63;;;;;;;5.52;92.18;102396.03;5081787;28;20071;-73
2022/03/15 04:55:58;;;;;;;14.32;2.17;;;;;;;5.48;92.24;102402.22;5058893;28;20044;-75
2022/03/15 04:58:25;;;;;;;7.68;2.63;;;;;;;5.46;91.83;102393.59;5079243;28;20115;-74
2022/03/15 05:00:53;;;;;;;4.47;2.65;;;;;;;5.42;92.41;102397.22;5055691;28;20070;-73
2022/03/15 05:05:47;;;;;;;6.50;2.25;;;;;;;5.41;92.08;102395.50;5099512;27;20422;-74
2022/03/15 05:08:17;;;;;;;9.02;2.80;;;;;;;5.38;92.33;102389.53;5096513;28;20127;-75
2022/03/15 05:13:28;;;;;;;2.50;2.20;;;;;;;5.27;92.48;102387.28;5086272;28;20044;-74
2022/03/15 05:16:10;;;;;;;8.48;2.92;;;;;;;5.23;92.87;102379.59;5089885;28;20040;-74
2022/03/15 05:18:44;;;;;;;5.00;2.53;;;;;;;5.22;93.35;102383.94;5091564;28;20055;-74
2022/03/15 05:21:16;;;;;;;3.22;2.38;;;;;;;5.23;93.25;102379.59;5090127;28;20139;-73
2022/03/15 05:23:54;;;;;;;5.20;2.83;;;;;;;5.25;93.14;102367.38;5093645;28;20043;-72
2022/03/15 05:30:49;;;;;;;5.13;3.38;;;;;;;5.23;93.04;102380.44;5028052;27;1212273;-76
2022/03/15 05:33:16;;;;;;;8.75;3.72;;;;;;;5.24;92.96;102376.09;5081553;28;20036;-74
2022/03/15 05:35:43;;;;;;;3.97;2.63;;;;;;;5.24;93.28;102374.34;5079710;28;20036;-75
2022/03/15 05:38:10;;;;;;;3.50;2.28;;;;;;;5.31;93.06;102382.81;5084879;28;20033;-74
2022/03/15 05:40:38;;;;;;;10.10;2.67;;;;;;;5.31;92.98;102370.63;5079516;28;20055;-73
2022/03/15 05:43:23;;;;;;;3.72;2.47;;;;;;;5.35;92.37;102380.06;5085724;28;20055;-74
2022/03/15 05:45:54;;;;;;;3.92;2.55;;;;;;;5.36;92.61;102379.19;5092733;28;20044;-73
2022/03/15 05:48:25;;;;;;;12.27;3.78;;;;;;;5.37;92.37;102378.28;5062612;28;20041;-72
2022/03/15 05:51:09;;;;;;;12.90;2.40;;;;;;;5.38;92.31;102374.75;5079906;28;20071;-73
